createdAt,value
2022-12-20T00:01:01.011Z,52.78
2022-12-20T00:03:27.510Z,46.67
2022-12-20T00:05:54.864Z,52.30
2022-12-20T00:08:21.362Z,49.42
2022-12-20T00:10:47.928Z,59.05
2022-12-20T00:13:14.576Z,53.80
2022-12-20T00:15:41.154Z,51.25
2022-12-20T00:18:07.726Z,55.67
2022-12-20T00:20:34.403Z,55.08
2022-12-20T00:23:01.696Z,56.00
2022-12-20T00:25:28.866Z,50.47
2022-12-20T00:27:55.521Z,57.30
2022-12-20T00:30:22.030Z,51.97
2022-12-20T00:32:48.504Z,54.20
2022-12-20T00:35:15.035Z,49.28
2022-12-20T00:37:41.791Z,50.30
2022-12-20T00:40:08.861Z,47.50
2022-12-20T00:42:35.399Z,60.22
2022-12-20T00:45:02.078Z,51.65
2022-12-20T00:47:28.620Z,49.95
2022-12-20T00:49:55.126Z,56.70
2022-12-20T00:52:22.300Z,53.63
2022-12-20T00:54:48.788Z,56.70
2022-12-20T00:57:15.317Z,50.75
2022-12-20T00:59:41.851Z,50.67
2022-12-20T01:02:08.538Z,52.47
2022-12-20T01:04:35.239Z,48.10
2022-12-20T01:07:02.619Z,50.03
2022-12-20T01:09:29.142Z,48.17
2022-12-20T01:11:55.701Z,48.38
2022-12-20T01:14:22.195Z,55.53
2022-12-20T01:16:48.924Z,52.17
2022-12-20T01:19:17.668Z,46.63
2022-12-20T01:21:44.880Z,49.47
2022-12-20T01:24:13.338Z,47.65
2022-12-20T01:26:40.058Z,48.58
2022-12-20T01:29:06.666Z,50.58
2022-12-20T01:31:33.277Z,45.50
2022-12-20T01:34:00.107Z,46.65
2022-12-20T01:36:29.827Z,47.65
2022-12-20T01:39:02.877Z,49.20
2022-12-20T01:41:30.911Z,47.22
2022-12-20T01:44:01.124Z,46.38
2022-12-20T01:46:30.082Z,53.30
2022-12-20T01:49:02.969Z,53.13
2022-12-20T01:51:32.104Z,42.00
2022-12-20T01:54:04.739Z,54.10
2022-12-20T01:56:31.617Z,50.05
2022-12-20T01:58:58.982Z,49.17
2022-12-20T02:01:25.976Z,44.45
2022-12-20T02:03:55.305Z,53.45
2022-12-20T02:06:24.707Z,48.95
2022-12-20T02:08:54.837Z,51.72
2022-12-20T02:11:26.967Z,51.17
2022-12-20T02:14:06.332Z,44.03
2022-12-20T02:16:42.664Z,50.53
2022-12-20T02:19:46.437Z,51.17
2022-12-20T02:22:37.796Z,38.67
2022-12-20T02:25:14.852Z,40.42
2022-12-20T02:27:55.201Z,47.35
2022-12-20T02:30:24.027Z,49.58
2022-12-20T02:32:59.405Z,45.78
2022-12-20T02:35:32.070Z,48.15
2022-12-20T02:38:05.019Z,57.60
2022-12-20T02:40:40.172Z,52.85
2022-12-20T02:43:28.935Z,48.03
2022-12-20T02:45:58.707Z,46.70
2022-12-20T02:48:28.979Z,51.55
2022-12-20T02:50:59.095Z,46.75
2022-12-20T02:53:26.447Z,56.17
2022-12-20T02:56:01.641Z,54.42
2022-12-20T02:58:34.749Z,52.13
2022-12-20T03:01:08.855Z,54.88
2022-12-20T03:03:36.711Z,52.85
2022-12-20T03:06:03.713Z,55.08
2022-12-20T03:08:30.524Z,47.20
2022-12-20T03:10:57.117Z,48.28
2022-12-20T03:13:24.968Z,47.45
2022-12-20T03:15:51.878Z,54.30
2022-12-20T03:18:18.787Z,53.72
2022-12-20T03:20:45.312Z,47.58
2022-12-20T03:23:11.857Z,58.08
2022-12-20T03:25:38.431Z,52.60
2022-12-20T03:28:04.956Z,49.20
2022-12-20T03:30:31.567Z,51.53
2022-12-20T03:32:58.222Z,50.03
2022-12-20T03:35:24.760Z,46.97
2022-12-20T03:37:51.262Z,46.40
2022-12-20T03:40:17.880Z,47.72
2022-12-20T03:42:44.407Z,51.50
2022-12-20T03:45:11.228Z,45.22
2022-12-20T03:47:37.947Z,50.33
2022-12-20T03:50:06.887Z,45.53
2022-12-20T03:52:33.969Z,46.13
2022-12-20T03:55:00.848Z,49.35
2022-12-20T03:57:27.417Z,46.53
2022-12-20T03:59:54.480Z,50.47
2022-12-20T04:02:22.752Z,48.63
2022-12-20T04:04:49.752Z,48.28
2022-12-20T04:07:16.669Z,56.53
2022-12-20T04:09:43.215Z,51.78
2022-12-20T04:12:09.773Z,52.05
2022-12-20T04:14:37.421Z,53.10
2022-12-20T04:17:04.526Z,49.70
2022-12-20T04:19:31.276Z,50.40
2022-12-20T04:22:04.739Z,48.58
2022-12-20T04:24:31.865Z,48.58
2022-12-20T04:26:58.354Z,50.70
2022-12-20T04:29:24.932Z,53.08
2022-12-20T04:31:51.504Z,54.10
2022-12-20T04:34:18.076Z,57.13
2022-12-20T04:36:44.730Z,60.33
2022-12-20T04:39:11.294Z,58.70
2022-12-20T04:41:37.877Z,52.88
2022-12-20T04:44:04.544Z,66.38
2022-12-20T04:46:31.109Z,54.90
2022-12-20T04:48:59.309Z,50.75
2022-12-20T04:51:28.023Z,60.75
2022-12-20T04:53:55.705Z,52.28
2022-12-20T04:56:31.160Z,51.17
2022-12-20T04:58:58.961Z,51.90
2022-12-20T05:01:26.357Z,56.83
2022-12-20T05:03:53.426Z,50.00
2022-12-20T05:06:20.074Z,57.60
2022-12-20T05:08:46.863Z,56.35
2022-12-20T05:11:13.441Z,52.97
2022-12-20T05:13:40.156Z,50.58
2022-12-20T05:16:07.266Z,53.60
2022-12-20T05:18:33.985Z,57.70
2022-12-20T05:21:20.436Z,55.13
2022-12-20T05:24:05.790Z,53.63
2022-12-20T05:26:36.625Z,48.88
2022-12-20T05:29:03.986Z,51.47
2022-12-20T05:31:31.175Z,55.78
2022-12-20T05:33:57.746Z,55.90
2022-12-20T05:36:24.268Z,50.78
2022-12-20T05:38:50.871Z,47.88
2022-12-20T05:41:17.423Z,51.50
2022-12-20T05:43:43.886Z,50.42
2022-12-20T05:46:10.824Z,48.58
2022-12-20T05:48:37.603Z,54.55
2022-12-20T05:51:04.615Z,50.20
2022-12-20T05:53:31.259Z,59.50
2022-12-20T05:55:59.421Z,60.13
2022-12-20T05:58:25.932Z,57.50
2022-12-20T06:00:52.514Z,52.25
2022-12-20T06:03:19.332Z,57.45
2022-12-20T06:05:46.735Z,53.20
2022-12-20T06:08:14.010Z,54.47
2022-12-20T06:10:41.968Z,56.15
2022-12-20T06:13:09.642Z,61.42
2022-12-20T06:15:36.452Z,56.03
2022-12-20T06:18:03.685Z,60.72
2022-12-20T06:20:30.206Z,56.67
2022-12-20T06:22:56.727Z,60.33
2022-12-20T06:25:23.242Z,52.97
2022-12-20T06:27:49.789Z,60.95
2022-12-20T06:30:16.804Z,51.38
2022-12-20T06:32:43.552Z,54.67
2022-12-20T06:35:10.100Z,55.65
2022-12-20T06:37:36.905Z,52.58
2022-12-20T06:40:05.398Z,57.50
2022-12-20T06:42:31.986Z,56.40
2022-12-20T06:44:58.539Z,61.20
2022-12-20T06:47:25.113Z,67.03
2022-12-20T06:49:54.768Z,60.13
2022-12-20T06:52:21.346Z,65.45
2022-12-20T06:54:53.421Z,59.65
2022-12-20T06:57:24.215Z,55.08
2022-12-20T06:59:50.719Z,57.20
2022-12-20T07:02:19.935Z,53.40
2022-12-20T07:04:48.840Z,60.85
2022-12-20T07:07:21.426Z,58.08
2022-12-20T07:09:53.587Z,57.45
2022-12-20T07:12:26.058Z,60.22
2022-12-20T07:14:58.952Z,60.50
2022-12-20T07:17:30.050Z,53.42
2022-12-20T07:19:56.620Z,52.03
2022-12-20T07:22:23.102Z,54.65
2022-12-20T07:24:52.102Z,58.38
2022-12-20T07:27:19.025Z,53.63
2022-12-20T07:29:45.533Z,51.70
2022-12-20T07:32:13.527Z,51.45
2022-12-20T07:34:40.603Z,59.53
2022-12-20T07:37:08.598Z,47.90
2022-12-20T07:39:35.186Z,56.53
2022-12-20T07:42:02.159Z,52.10
2022-12-20T07:44:29.103Z,50.58
2022-12-20T07:46:55.649Z,47.47
2022-12-20T07:49:22.244Z,57.70
2022-12-20T07:51:53.619Z,53.75
2022-12-20T07:54:26.187Z,50.67
2022-12-20T07:56:58.707Z,53.00
2022-12-20T07:59:29.249Z,49.72
2022-12-20T08:02:00.871Z,49.42
2022-12-20T08:04:31.169Z,48.85
2022-12-20T08:07:01.283Z,53.03
2022-12-20T08:12:01.319Z,49.63
2022-12-20T08:14:27.900Z,49.45
2022-12-20T08:16:54.469Z,55.08
2022-12-20T08:19:23.304Z,48.00
2022-12-20T08:21:52.033Z,51.10
2022-12-20T08:24:18.726Z,51.75
2022-12-20T08:26:45.263Z,47.88
2022-12-20T08:29:11.797Z,44.55
2022-12-20T08:31:44.424Z,50.38
2022-12-20T08:34:14.290Z,40.20
2022-12-20T08:36:41.063Z,46.45
2022-12-20T08:39:08.049Z,43.05
2022-12-20T08:41:36.765Z,34.80
2022-12-20T08:44:04.823Z,44.97
2022-12-20T08:46:31.351Z,43.17
2022-12-20T08:48:57.921Z,55.08
2022-12-20T08:51:24.668Z,45.35
2022-12-20T08:53:53.200Z,31.35
2022-12-20T08:56:20.180Z,41.05
2022-12-20T08:58:47.142Z,49.33
2022-12-20T09:01:16.228Z,47.67
2022-12-20T09:03:43.673Z,37.97
2022-12-20T09:06:20.192Z,41.58
2022-12-20T09:08:47.721Z,46.63
2022-12-20T09:11:15.899Z,48.53
2022-12-20T09:13:44.848Z,42.60
2022-12-20T09:16:13.919Z,37.58
2022-12-20T09:18:41.260Z,35.23
2022-12-20T09:21:09.386Z,53.13
2022-12-20T09:23:37.083Z,47.47
2022-12-20T09:26:11.128Z,30.58
2022-12-20T09:28:37.685Z,40.53
2022-12-20T09:31:06.601Z,33.85
2022-12-20T09:33:34.921Z,30.23
2022-12-20T09:36:02.394Z,33.65
2022-12-20T09:38:31.176Z,31.70
2022-12-20T09:41:06.705Z,32.70
2022-12-20T09:43:34.090Z,28.38
2022-12-20T09:46:03.969Z,33.00
2022-12-20T09:48:35.403Z,29.90
2022-12-20T09:51:28.249Z,33.28
2022-12-20T09:54:36.002Z,29.27
2022-12-20T09:57:13.087Z,32.72
2022-12-20T09:59:47.539Z,35.50
2022-12-20T10:02:58.296Z,29.35
2022-12-20T10:05:57.760Z,28.77
2022-12-20T10:08:42.458Z,33.45
2022-12-20T10:11:39.582Z,32.00
2022-12-20T10:14:27.213Z,27.13
2022-12-20T10:17:09.092Z,33.13
2022-12-20T10:19:56.475Z,25.63
2022-12-20T10:22:29.107Z,35.35
2022-12-20T10:25:22.928Z,32.85
2022-12-20T10:27:53.529Z,30.67
2022-12-20T10:30:22.914Z,30.63
2022-12-20T10:32:52.699Z,28.33
2022-12-20T10:35:40.492Z,28.15
2022-12-20T10:38:12.518Z,32.55
2022-12-20T10:41:20.225Z,30.75
2022-12-20T10:43:43.193Z,29.38
2022-12-20T10:46:11.554Z,33.25
2022-12-20T10:48:41.185Z,32.80
2022-12-20T10:51:15.334Z,30.33
2022-12-20T10:53:51.387Z,31.35
2022-12-20T10:56:22.012Z,33.50
2022-12-20T10:59:22.936Z,32.17
2022-12-20T11:01:50.603Z,33.20
2022-12-20T11:04:30.196Z,31.85
2022-12-20T11:06:58.033Z,30.88
2022-12-20T11:09:36.268Z,29.17
2022-12-20T11:12:13.612Z,34.10
2022-12-20T11:14:42.625Z,27.33
2022-12-20T11:17:22.653Z,35.05
2022-12-20T11:20:08.863Z,32.58
2022-12-20T11:22:54.319Z,34.53
2022-12-20T11:25:30.877Z,31.75
2022-12-20T11:28:19.332Z,26.80
2022-12-20T11:31:00.780Z,30.58
2022-12-20T11:33:27.272Z,30.30
2022-12-20T11:36:15.466Z,28.00
2022-12-20T11:38:46.284Z,28.10
2022-12-20T11:41:27.817Z,27.60
2022-12-20T11:44:33.078Z,23.85
2022-12-20T11:47:21.249Z,29.25
2022-12-20T11:50:09.724Z,27.75
2022-12-20T11:52:42.293Z,35.65
2022-12-20T11:55:29.822Z,23.13
2022-12-20T11:58:21.512Z,24.67
2022-12-20T12:00:54.885Z,25.30
2022-12-20T12:03:32.917Z,26.88
2022-12-20T12:06:16.301Z,27.80
2022-12-20T12:08:55.516Z,23.85
2022-12-20T12:14:47.647Z,28.88
2022-12-20T12:17:24.889Z,28.55
2022-12-20T12:19:57.113Z,29.33
2022-12-20T12:22:33.115Z,30.33
2022-12-20T12:25:04.583Z,25.83
2022-12-20T12:27:31.333Z,26.27
2022-12-20T12:29:58.908Z,26.23
2022-12-20T12:32:36.889Z,31.27
2022-12-20T12:35:13.347Z,27.50
2022-12-20T12:37:55.652Z,29.60
2022-12-20T12:40:52.318Z,27.10
2022-12-20T12:43:29.241Z,26.35
2022-12-20T12:46:00.031Z,30.30
2022-12-20T12:49:01.755Z,30.02
2022-12-20T12:51:32.941Z,27.23
2022-12-20T12:54:16.632Z,28.10
2022-12-20T12:56:51.023Z,29.40
2022-12-20T12:59:20.279Z,31.30
2022-12-20T13:02:06.389Z,33.63
2022-12-20T13:04:55.642Z,27.23
2022-12-20T13:07:35.164Z,30.00
2022-12-20T13:10:24.890Z,26.27
2022-12-20T13:12:52.541Z,34.88
2022-12-20T13:15:22.105Z,27.85
2022-12-20T13:17:48.622Z,31.48
2022-12-20T13:20:39.498Z,33.65
2022-12-20T13:23:08.867Z,30.77
2022-12-20T13:25:36.984Z,31.55
2022-12-20T13:28:19.146Z,25.33
2022-12-20T13:30:47.276Z,31.10
2022-12-20T13:33:24.092Z,33.60
2022-12-20T13:35:59.891Z,35.83
2022-12-20T13:38:48.202Z,33.17
2022-12-20T13:41:35.547Z,32.03
2022-12-20T13:44:14.528Z,44.22
2022-12-20T13:46:57.146Z,37.88
2022-12-20T13:49:36.651Z,49.35
2022-12-20T13:52:12.286Z,33.03
2022-12-20T13:54:44.181Z,48.55
2022-12-20T13:57:17.243Z,44.08
2022-12-20T13:59:59.985Z,47.17
2022-12-20T14:02:36.392Z,48.35
2022-12-20T14:05:13.240Z,51.25
2022-12-20T14:07:40.216Z,50.92
2022-12-20T14:10:27.606Z,43.97
2022-12-20T14:12:55.351Z,50.50
2022-12-20T14:15:25.049Z,49.67
2022-12-20T14:17:51.588Z,32.17
2022-12-20T14:20:38.442Z,48.47
2022-12-20T14:23:11.580Z,43.33
2022-12-20T14:25:43.494Z,37.60
2022-12-20T14:28:26.453Z,45.05
2022-12-20T14:30:53.766Z,42.50
2022-12-20T14:33:38.064Z,40.00
2022-12-20T14:36:16.801Z,30.27
2022-12-20T14:38:45.768Z,50.25
2022-12-20T14:41:38.405Z,51.60
2022-12-20T14:44:07.770Z,51.35
2022-12-20T14:46:35.983Z,42.80
2022-12-20T14:49:30.281Z,58.63
2022-12-20T14:52:12.128Z,44.92
2022-12-20T14:55:09.126Z,59.45
2022-12-20T14:57:36.697Z,53.40
2022-12-20T15:00:18.344Z,62.75
2022-12-20T15:02:52.925Z,56.10
2022-12-20T15:05:38.674Z,53.70
2022-12-20T15:08:10.927Z,64.05
2022-12-20T15:10:37.793Z,61.65
2022-12-20T15:13:05.089Z,55.33
2022-12-20T15:15:31.691Z,50.35
2022-12-20T15:17:58.212Z,64.63
2022-12-20T15:20:24.738Z,52.40
2022-12-20T15:22:51.271Z,60.38
2022-12-20T15:25:18.048Z,51.40
2022-12-20T15:27:44.696Z,54.05
2022-12-20T15:30:14.418Z,57.05
2022-12-20T15:32:54.662Z,50.85
2022-12-20T15:35:22.497Z,45.95
2022-12-20T15:37:49.061Z,50.35
2022-12-20T15:40:15.624Z,50.25
2022-12-20T15:42:43.330Z,57.70
2022-12-20T15:45:14.493Z,51.03
2022-12-20T15:47:41.026Z,44.67
2022-12-20T15:50:08.522Z,54.80
2022-12-20T15:52:35.088Z,52.00
2022-12-20T15:55:01.661Z,55.47
2022-12-20T15:57:28.883Z,46.08
2022-12-20T16:00:01.831Z,51.20
2022-12-20T16:02:31.007Z,53.45
2022-12-20T16:04:58.837Z,58.70
2022-12-20T16:07:25.571Z,51.30
2022-12-20T16:09:52.198Z,50.00
2022-12-20T16:12:26.926Z,47.85
2022-12-20T16:14:53.592Z,52.63
2022-12-20T16:17:20.157Z,63.65
2022-12-20T16:19:46.761Z,56.50
2022-12-20T16:22:23.885Z,67.63
2022-12-20T16:24:51.726Z,55.85
2022-12-20T16:27:18.421Z,58.10
2022-12-20T16:29:45.530Z,54.63
2022-12-20T16:32:17.540Z,55.63
2022-12-20T16:34:45.311Z,52.05
2022-12-20T16:37:12.047Z,50.05
2022-12-20T16:39:38.649Z,54.08
2022-12-20T16:42:13.029Z,53.90
2022-12-20T16:44:42.729Z,53.42
2022-12-20T16:47:09.913Z,60.33
2022-12-20T16:49:36.861Z,53.20
2022-12-20T16:52:04.444Z,62.50
2022-12-20T16:54:31.970Z,56.45
2022-12-20T16:56:58.526Z,61.08
2022-12-20T16:59:25.851Z,52.63
2022-12-20T17:01:55.619Z,50.42
2022-12-20T17:06:49.709Z,54.53
2022-12-20T17:09:17.615Z,58.08
2022-12-20T17:11:45.127Z,47.60
2022-12-20T17:14:14.387Z,50.28
2022-12-20T17:16:41.557Z,54.58
2022-12-20T17:19:10.809Z,56.97
2022-12-20T17:24:26.468Z,56.83
2022-12-20T17:26:53.030Z,57.40
2022-12-20T17:29:20.489Z,52.50
2022-12-20T17:31:48.112Z,62.25
2022-12-20T17:34:20.778Z,74.03
2022-12-20T17:36:48.766Z,69.40
2022-12-20T17:39:15.732Z,69.10
2022-12-20T17:41:43.298Z,60.28
2022-12-20T17:44:20.620Z,56.05
2022-12-20T17:46:47.643Z,51.55
2022-12-20T17:49:15.390Z,57.22
2022-12-20T17:51:42.733Z,55.92
2022-12-20T17:54:18.476Z,60.40
2022-12-20T17:56:45.370Z,59.35
2022-12-20T17:59:13.750Z,57.53
2022-12-20T18:01:41.692Z,61.72
2022-12-20T18:04:11.403Z,56.90
2022-12-20T18:06:39.910Z,59.45
2022-12-20T18:09:21.402Z,54.38
2022-12-20T18:11:48.434Z,66.00
2022-12-20T18:14:15.915Z,62.80
2022-12-20T18:16:42.870Z,64.38
2022-12-20T18:19:15.459Z,56.25
2022-12-20T18:21:41.966Z,58.65
2022-12-20T18:24:11.981Z,58.17
2022-12-20T18:29:05.018Z,55.47
2022-12-20T18:31:34.285Z,53.65
2022-12-20T18:34:01.970Z,57.03
2022-12-20T18:36:34.693Z,56.42
2022-12-20T18:39:05.319Z,55.50
2022-12-20T18:41:32.454Z,62.70
2022-12-20T18:44:01.074Z,55.80
2022-12-20T18:46:28.368Z,50.45
2022-12-20T18:48:57.201Z,51.55
2022-12-20T18:51:27.164Z,61.78
2022-12-20T18:53:55.752Z,63.33
2022-12-20T18:56:28.765Z,62.03
2022-12-20T18:58:56.964Z,59.53
2022-12-20T19:01:26.152Z,57.65
2022-12-20T19:03:53.912Z,59.92
2022-12-20T19:06:21.588Z,56.08
2022-12-20T19:08:48.864Z,56.72
2022-12-20T19:11:18.608Z,58.67
2022-12-20T19:13:45.497Z,60.42
2022-12-20T19:16:13.189Z,53.92
2022-12-20T19:18:41.110Z,62.90
2022-12-20T19:21:10.729Z,53.67
2022-12-20T19:23:39.033Z,56.58
2022-12-20T19:26:08.657Z,63.05
2022-12-20T19:28:36.223Z,54.45
2022-12-20T19:31:14.231Z,68.85
2022-12-20T19:33:46.396Z,62.45
2022-12-20T19:36:18.247Z,57.60
2022-12-20T19:38:47.335Z,65.20
2022-12-20T19:41:14.588Z,67.00
2022-12-20T19:43:41.918Z,68.03
2022-12-20T19:46:09.681Z,60.63
2022-12-20T19:48:37.072Z,68.40
2022-12-20T19:51:06.566Z,65.45
2022-12-20T19:53:33.108Z,48.33
2022-12-20T19:55:59.662Z,62.55
2022-12-20T19:58:26.167Z,65.97
2022-12-20T20:00:52.973Z,64.95
2022-12-20T20:03:20.574Z,64.57
2022-12-20T20:05:47.663Z,65.57
2022-12-20T20:08:15.305Z,57.72
2022-12-20T20:10:44.903Z,71.63
2022-12-20T20:13:11.869Z,61.72
2022-12-20T20:15:38.481Z,68.28
2022-12-20T20:18:05.226Z,61.83
2022-12-20T20:20:32.911Z,69.43
2022-12-20T20:22:59.447Z,61.00
2022-12-20T20:25:26.379Z,63.60
2022-12-20T20:27:52.910Z,60.88
2022-12-20T20:30:19.526Z,57.47
2022-12-20T20:32:46.193Z,68.20
2022-12-20T20:35:12.732Z,67.47
2022-12-20T20:37:39.883Z,64.55
2022-12-20T20:40:07.243Z,60.13
2022-12-20T20:42:33.747Z,67.90
2022-12-20T20:45:00.253Z,58.83
2022-12-20T20:47:26.773Z,64.53
2022-12-20T20:49:53.275Z,63.17
2022-12-20T20:52:20.027Z,58.20
2022-12-20T20:54:46.657Z,61.58
2022-12-20T20:57:13.372Z,59.28
2022-12-20T20:59:40.116Z,61.42
2022-12-20T21:02:07.131Z,58.72
2022-12-20T21:04:33.754Z,66.88
2022-12-20T21:07:00.427Z,57.58
2022-12-20T21:09:26.974Z,58.25
2022-12-20T21:11:53.636Z,55.22
2022-12-20T21:14:36.446Z,60.13
2022-12-20T21:17:06.820Z,61.20
2022-12-20T21:19:33.317Z,58.33
2022-12-20T21:22:01.040Z,56.80
2022-12-20T21:24:27.614Z,63.05
2022-12-20T21:26:55.273Z,62.78
2022-12-20T21:29:22.618Z,59.05
2022-12-20T21:31:49.221Z,58.75
2022-12-20T21:34:15.737Z,58.72
2022-12-20T21:36:42.679Z,62.20
2022-12-20T21:39:12.475Z,56.22
2022-12-20T21:41:39.717Z,58.00
2022-12-20T21:44:06.217Z,55.28
2022-12-20T21:46:33.007Z,60.97
2022-12-20T21:48:59.906Z,56.28
2022-12-20T21:51:27.651Z,60.20
2022-12-20T21:53:56.525Z,67.32
2022-12-20T21:56:25.161Z,60.83
2022-12-20T21:58:52.037Z,63.30
2022-12-20T22:01:21.061Z,63.17
2022-12-20T22:03:52.224Z,44.73
2022-12-20T22:06:19.106Z,55.05
2022-12-20T22:08:45.905Z,63.78
2022-12-20T22:11:18.352Z,91.55
2022-12-20T22:13:46.302Z,62.20
2022-12-20T22:16:17.988Z,60.70
2022-12-20T22:18:49.850Z,64.95
2022-12-20T22:21:17.856Z,56.70
2022-12-20T22:23:44.743Z,60.53
2022-12-20T22:26:16.740Z,62.63
2022-12-20T22:28:49.840Z,60.95
2022-12-20T22:31:17.671Z,65.00
2022-12-20T22:33:44.898Z,68.05
2022-12-20T22:36:13.507Z,71.38
2022-12-20T22:38:40.824Z,69.70
2022-12-20T22:41:10.371Z,64.65
2022-12-20T22:43:38.648Z,61.80
2022-12-20T22:46:05.683Z,66.70
2022-12-20T22:48:32.303Z,66.72
2022-12-20T22:51:04.521Z,59.88
2022-12-20T22:53:34.870Z,64.15
2022-12-20T22:56:02.350Z,67.47
2022-12-20T22:58:30.382Z,70.50
2022-12-20T23:01:02.649Z,78.25
2022-12-20T23:03:30.315Z,66.05
2022-12-20T23:05:59.425Z,63.13
2022-12-20T23:08:27.883Z,59.55
2022-12-20T23:11:13.010Z,64.45
2022-12-20T23:13:58.833Z,54.42
2022-12-20T23:16:25.939Z,62.92
2022-12-20T23:18:56.779Z,58.75
2022-12-20T23:21:42.343Z,58.30
2022-12-20T23:24:10.243Z,62.05
2022-12-20T23:26:38.420Z,52.67
2022-12-20T23:29:07.004Z,55.00
2022-12-20T23:31:33.909Z,56.08
2022-12-20T23:34:01.768Z,58.30
2022-12-20T23:36:29.152Z,55.53
2022-12-20T23:38:56.783Z,62.17
2022-12-20T23:41:23.759Z,61.45
2022-12-20T23:43:50.432Z,63.83
2022-12-20T23:46:18.937Z,51.70
2022-12-20T23:48:45.560Z,58.25
2022-12-20T23:51:12.482Z,64.47
2022-12-20T23:53:39.348Z,68.35
2022-12-20T23:56:18.188Z,71.25
2022-12-20T23:58:46.228Z,64.82
